Time;durP1;ratioP1;P1;durP2;ratioP2;P2;SDS_P1;SDS_P2;PMS_P1;PMS_P2;Temp;Humidity;BMP_temperature;BMP_pressure;BME280_temperature;BME280_humidity;BME280_pressure;Samples;Min_cycle;Max_cycle;Signal;HPM_P1;HPM_P2
2022/08/10 00:01:39;;;;;;;2.28;1.00;;;17.60;94.50;;;;;;4970888;28;20488;-37
2022/08/10 00:04:05;;;;;;;1.80;1.10;;;17.60;94.50;;;;;;4988875;28;20404;-37
2022/08/10 00:06:31;;;;;;;2.33;1.20;;;17.50;94.90;;;;;;4990532;28;20045;-37
2022/08/10 00:08:57;;;;;;;3.00;1.30;;;17.50;94.80;;;;;;4988239;28;20129;-39
2022/08/10 00:11:23;;;;;;;2.53;1.30;;;17.50;95.00;;;;;;4986823;28;20089;-38
2022/08/10 00:13:49;;;;;;;2.63;1.30;;;17.50;95.10;;;;;;4989964;28;20496;-37
2022/08/10 00:16:15;;;;;;;3.50;1.10;;;17.50;95.40;;;;;;4988917;28;20053;-37
2022/08/10 00:18:41;;;;;;;3.00;1.48;;;17.50;95.50;;;;;;4990319;28;20125;-37
2022/08/10 00:21:09;;;;;;;3.17;1.48;;;17.40;95.60;;;;;;4986053;28;20093;-37
2022/08/10 00:23:36;;;;;;;2.85;1.50;;;17.40;95.90;;;;;;4970229;28;20050;-38
2022/08/10 00:26:02;;;;;;;2.08;1.48;;;17.40;96.20;;;;;;4971096;28;20050;-37
2022/08/10 00:28:29;;;;;;;2.10;1.40;;;17.30;96.20;;;;;;4988036;28;20558;-37
2022/08/10 00:30:54;;;;;;;2.42;1.40;;;17.30;96.60;;;;;;4986412;28;20494;-37
2022/08/10 00:33:20;;;;;;;2.28;1.35;;;17.30;96.90;;;;;;4988493;28;20069;-37
2022/08/10 00:35:47;;;;;;;2.97;1.42;;;17.20;97.00;;;;;;4986657;28;20058;-37
2022/08/10 00:38:13;;;;;;;2.35;1.20;;;17.20;97.20;;;;;;4986848;28;20046;-37
2022/08/10 00:40:38;;;;;;;3.55;1.90;;;17.20;97.60;;;;;;4987707;28;20392;-38
2022/08/10 00:43:07;;;;;;;3.65;1.98;;;17.20;97.70;;;;;;4987188;28;20084;-37
2022/08/10 00:45:34;;;;;;;3.40;1.33;;;17.20;98.00;;;;;;4986912;28;20092;-38
2022/08/10 00:47:59;;;;;;;2.22;1.60;;;17.20;97.90;;;;;;4989233;28;20042;-37
2022/08/10 00:50:25;;;;;;;2.67;1.20;;;17.10;97.80;;;;;;4987654;28;20046;-37
2022/08/10 00:52:51;;;;;;;2.28;1.55;;;17.10;98.20;;;;;;4986507;28;20481;-38
2022/08/10 00:55:18;;;;;;;5.40;1.65;;;17.10;98.60;;;;;;4986282;28;20038;-37
2022/08/10 00:57:45;;;;;;;3.15;1.75;;;17.00;98.70;;;;;;4979111;28;20038;-37
2022/08/10 01:00:11;;;;;;;2.88;1.95;;;17.00;98.90;;;;;;4960814;28;20069;-37
2022/08/10 01:02:39;;;;;;;4.07;1.85;;;17.00;99.10;;;;;;4981573;28;20476;-36
2022/08/10 01:05:07;;;;;;;3.35;2.08;;;17.00;99.20;;;;;;4967506;28;20070;-36
2022/08/10 01:08:04;;;;;;;4.72;1.90;;;17.00;99.40;;;;;;4986779;28;20046;-37
2022/08/10 01:11:04;;;;;;;2.40;1.58;;;17.00;99.80;;;;;;4982780;28;20047;-37
2022/08/10 01:13:52;;;;;;;2.50;1.42;;;17.00;99.90;;;;;;4986264;28;20042;-36
2022/08/10 01:16:29;;;;;;;4.13;1.67;;;17.00;99.90;;;;;;4992181;28;20488;-37
2022/08/10 01:19:36;;;;;;;3.45;2.00;;;17.00;99.50;;;;;;4990903;28;20070;-37
2022/08/10 01:22:32;;;;;;;3.53;2.00;;;17.00;99.90;;;;;;4967324;28;20149;-37
2022/08/10 01:25:18;;;;;;;4.18;2.60;;;16.90;99.80;;;;;;4988319;28;20084;-37
2022/08/10 01:27:47;;;;;;;4.38;2.20;;;17.00;99.90;;;;;;4986120;28;20092;-37
2022/08/10 01:30:14;;;;;;;4.15;2.10;;;16.90;99.80;;;;;;4987302;28;20097;-37
2022/08/10 01:33:03;;;;;;;4.35;1.65;;;16.90;99.90;;;;;;4987562;28;20042;-36
2022/08/10 01:35:35;;;;;;;4.22;2.17;;;16.90;99.90;;;;;;4987581;28;20710;-36
2022/08/10 01:38:17;;;;;;;3.35;1.92;;;16.80;99.90;;;;;;4988857;28;20052;-37
2022/08/10 01:40:52;;;;;;;2.95;2.00;;;16.80;99.90;;;;;;4984206;28;20388;-37
2022/08/10 01:43:19;;;;;;;5.07;2.20;;;16.80;99.90;;;;;;4986987;28;20088;-37
2022/08/10 01:45:51;;;;;;;2.83;1.77;;;16.70;99.90;;;;;;4985265;28;20534;-37
2022/08/10 01:48:30;;;;;;;3.03;1.80;;;16.70;99.90;;;;;;4984306;28;20488;-37
2022/08/10 01:51:22;;;;;;;5.63;2.80;;;16.60;99.90;;;;;;4983232;28;20034;-37
2022/08/10 01:54:03;;;;;;;6.18;2.47;;;16.60;99.90;;;;;;4987241;28;20046;-36
2022/08/10 01:56:36;;;;;;;6.43;2.75;;;16.50;99.90;;;;;;4988001;28;20105;-37
2022/08/10 01:59:35;;;;;;;5.43;2.90;;;16.50;99.90;;;;;;4984095;28;20057;-37
2022/08/10 02:02:05;;;;;;;4.30;2.50;;;16.50;99.90;;;;;;4951034;28;20570;-37
2022/08/10 02:04:34;;;;;;;5.95;3.28;;;16.40;99.90;;;;;;4970726;28;20050;-37
2022/08/10 02:07:01;;;;;;;5.22;3.25;;;16.40;99.90;;;;;;4987456;28;20069;-36
2022/08/10 02:09:41;;;;;;;5.32;3.08;;;16.40;99.90;;;;;;4988223;28;20077;-37
2022/08/10 02:12:12;;;;;;;5.53;2.60;;;16.30;99.90;;;;;;4980909;28;20508;-37
2022/08/10 02:14:49;;;;;;;4.57;3.03;;;16.30;99.90;;;;;;4983437;28;20150;-36
2022/08/10 02:17:19;;;;;;;4.20;2.85;;;16.30;99.90;;;;;;4984984;28;20567;-37
2022/08/10 02:19:47;;;;;;;4.25;2.85;;;16.30;99.90;;;;;;4988188;28;20480;-37
2022/08/10 02:22:15;;;;;;;5.45;3.35;;;16.30;99.90;;;;;;4986184;28;20038;-37
2022/08/10 02:24:43;;;;;;;4.60;2.92;;;16.30;99.90;;;;;;4987247;28;20042;-37
2022/08/10 02:27:11;;;;;;;5.03;3.08;;;16.20;99.90;;;;;;4983581;28;20050;-37
2022/08/10 02:29:39;;;;;;;4.30;2.75;;;16.20;99.90;;;;;;4986406;28;20053;-37
2022/08/10 02:32:07;;;;;;;5.03;3.00;;;16.20;99.90;;;;;;4985485;28;20042;-37
2022/08/10 02:34:35;;;;;;;4.43;2.80;;;16.20;99.90;;;;;;4988403;28;20395;-37
2022/08/10 02:37:03;;;;;;;4.15;3.05;;;16.10;99.90;;;;;;4985144;28;20121;-36
2022/08/10 02:39:30;;;;;;;5.50;3.50;;;16.10;99.90;;;;;;4986464;28;20040;-37
2022/08/10 02:41:56;;;;;;;6.55;4.05;;;16.10;99.90;;;;;;4985650;28;20520;-38
2022/08/10 02:44:29;;;;;;;4.32;2.85;;;16.10;99.90;;;;;;4986110;28;20046;-37
2022/08/10 02:47:04;;;;;;;5.80;3.33;;;16.10;99.90;;;;;;4985465;28;20395;-37
2022/08/10 02:49:47;;;;;;;5.30;3.20;;;16.00;99.90;;;;;;4985716;28;20065;-37
2022/08/10 02:52:21;;;;;;;4.15;2.78;;;16.00;99.90;;;;;;4986288;28;20038;-37
2022/08/10 02:55:02;;;;;;;6.60;3.17;;;16.00;99.90;;;;;;4985743;28;20121;-37
2022/08/10 02:57:35;;;;;;;5.22;2.90;;;16.00;99.90;;;;;;4984286;28;20590;-37
2022/08/10 03:00:05;;;;;;;5.38;3.20;;;15.90;99.90;;;;;;4985444;28;20527;-38
2022/08/10 03:02:45;;;;;;;5.50;2.97;;;15.90;99.90;;;;;;4986795;28;20042;-37
2022/08/10 03:05:14;;;;;;;6.22;3.05;;;15.90;99.90;;;;;;4988341;28;20046;-37
2022/08/10 03:08:00;;;;;;;5.28;3.33;;;15.90;99.90;;;;;;4988932;28;20050;-40
2022/08/10 03:10:32;;;;;;;5.60;3.38;;;15.90;99.90;;;;;;4986330;28;20073;-36
2022/08/10 03:13:06;;;;;;;5.63;3.17;;;15.80;99.90;;;;;;4985404;28;20043;-37
2022/08/10 03:15:34;;;;;;;4.15;2.90;;;15.80;99.90;;;;;;4987644;28;20085;-37
2022/08/10 03:18:01;;;;;;;5.80;3.60;;;15.80;99.90;;;;;;4991114;28;20046;-36
2022/08/10 03:20:34;;;;;;;7.88;3.60;;;15.80;99.90;;;;;;4987908;28;20035;-37
2022/08/10 03:23:01;;;;;;;5.40;3.80;;;15.80;99.90;;;;;;4986765;28;20046;-34
2022/08/10 03:25:28;;;;;;;6.20;3.53;;;15.70;99.90;;;;;;4988073;28;20503;-36
2022/08/10 03:27:55;;;;;;;5.93;3.83;;;15.70;99.90;;;;;;4988780;28;20507;-36
2022/08/10 03:30:21;;;;;;;7.35;4.53;;;15.70;99.90;;;;;;4988169;28;20125;-37
2022/08/10 03:32:49;;;;;;;4.93;3.45;;;15.70;99.90;;;;;;4988662;28;20061;-36
2022/08/10 03:35:16;;;;;;;5.85;3.60;;;15.70;99.90;;;;;;4988969;28;21346;-37
2022/08/10 03:37:42;;;;;;;5.90;3.97;;;15.60;99.90;;;;;;4990619;28;20038;-37
2022/08/10 03:40:08;;;;;;;7.25;4.05;;;15.60;99.90;;;;;;4988062;28;20045;-37
2022/08/10 03:42:37;;;;;;;7.22;3.75;;;15.60;99.90;;;;;;4989943;28;20545;-37
2022/08/10 03:45:05;;;;;;;7.18;4.05;;;15.60;99.90;;;;;;4989125;28;20042;-38
2022/08/10 03:47:32;;;;;;;7.72;4.43;;;15.60;99.90;;;;;;4987171;28;20125;-38
2022/08/10 03:49:59;;;;;;;4.80;3.65;;;15.60;99.90;;;;;;4990051;28;20073;-37
2022/08/10 03:52:25;;;;;;;6.57;4.07;;;15.50;99.90;;;;;;4968248;28;20060;-37
2022/08/10 03:54:51;;;;;;;5.60;3.97;;;15.50;99.90;;;;;;4988584;28;20061;-36
2022/08/10 03:57:19;;;;;;;6.80;4.05;;;15.50;99.90;;;;;;4986476;28;20556;-36
2022/08/10 03:59:45;;;;;;;6.40;4.13;;;15.50;99.90;;;;;;4986722;28;20518;-37
2022/08/10 04:02:11;;;;;;;5.10;3.72;;;15.50;99.90;;;;;;4989731;28;20511;-37
2022/08/10 04:04:37;;;;;;;5.60;3.85;;;15.50;99.90;;;;;;4989200;28;20042;-36
2022/08/10 04:07:04;;;;;;;7.22;4.85;;;15.50;99.90;;;;;;4986570;28;20558;-37
2022/08/10 04:09:31;;;;;;;7.05;4.30;;;15.50;99.90;;;;;;4988267;28;20092;-36
2022/08/10 04:11:57;;;;;;;6.13;3.80;;;15.50;99.90;;;;;;4967922;28;20073;-38
2022/08/10 04:14:23;;;;;;;5.72;4.25;;;15.50;99.90;;;;;;4988436;28;20097;-36
2022/08/10 04:16:49;;;;;;;4.47;3.35;;;15.50;99.90;;;;;;4986975;28;20050;-36
2022/08/10 04:19:17;;;;;;;7.53;3.75;;;15.50;99.90;;;;;;4986634;28;20040;-37
2022/08/10 04:21:47;;;;;;;7.22;3.72;;;15.50;99.90;;;;;;4953669;28;20049;-36
2022/08/10 04:24:19;;;;;;;7.95;4.32;;;15.60;99.90;;;;;;4986081;28;20039;-36
2022/08/10 04:26:45;;;;;;;6.40;4.10;;;15.50;99.90;;;;;;4987445;28;20122;-36
2022/08/10 04:29:11;;;;;;;8.38;4.38;;;15.50;99.90;;;;;;4988431;28;20092;-36
2022/08/10 04:31:38;;;;;;;6.07;3.92;;;15.50;99.90;;;;;;4987344;28;20034;-36
2022/08/10 04:34:05;;;;;;;6.20;3.80;;;15.50;99.90;;;;;;4969037;28;20047;-36
2022/08/10 04:36:32;;;;;;;7.43;5.00;;;15.50;99.90;;;;;;4987602;28;20034;-37
2022/08/10 04:38:58;;;;;;;8.95;4.78;;;15.50;99.90;;;;;;4990456;28;20105;-39
2022/08/10 04:41:24;;;;;;;4.97;3.63;;;15.50;99.90;;;;;;4983569;28;20062;-37
2022/08/10 04:43:50;;;;;;;5.55;3.83;;;15.50;99.90;;;;;;4988023;28;20061;-37
2022/08/10 04:46:16;;;;;;;6.70;3.83;;;15.60;99.90;;;;;;4989968;28;20495;-36
2022/08/10 04:48:42;;;;;;;5.90;3.75;;;15.60;99.90;;;;;;4987780;28;20112;-37
2022/08/10 04:51:13;;;;;;;8.35;4.20;;;15.60;99.90;;;;;;4973836;28;20140;-37
2022/08/10 04:53:39;;;;;;;5.40;3.47;;;15.60;99.90;;;;;;4987903;28;20049;-37
2022/08/10 04:56:07;;;;;;;6.97;4.30;;;15.60;99.90;;;;;;4987173;28;20035;-37
2022/08/10 04:58:33;;;;;;;6.65;4.03;;;15.60;99.90;;;;;;4989650;28;20092;-37
2022/08/10 05:00:59;;;;;;;6.85;4.30;;;15.70;99.90;;;;;;4987636;28;20054;-36
2022/08/10 05:03:25;;;;;;;9.13;4.30;;;15.70;99.90;;;;;;4987814;28;20558;-37
2022/08/10 05:05:50;;;;;;;6.07;3.60;;;15.70;99.90;;;;;;4989421;28;20038;-37
2022/08/10 05:08:16;;;;;;;5.85;3.67;;;15.70;99.90;;;;;;4987851;28;20034;-37
2022/08/10 05:10:42;;;;;;;5.57;3.78;;;15.80;99.90;;;;;;4986555;28;20034;-37
2022/08/10 05:13:07;;;;;;;9.50;4.03;;;15.80;99.90;;;;;;4988000;28;20049;-36
2022/08/10 05:15:33;;;;;;;8.02;3.97;;;15.90;99.90;;;;;;4986447;28;20400;-37
2022/08/10 05:17:59;;;;;;;10.57;4.25;;;15.90;99.90;;;;;;4988678;28;20038;-37
2022/08/10 05:20:25;;;;;;;7.10;3.92;;;15.90;99.90;;;;;;4987144;28;20874;-36
2022/08/10 05:22:50;;;;;;;7.00;4.65;;;16.00;99.90;;;;;;4987408;28;20045;-38
2022/08/10 05:25:18;;;;;;;7.72;5.03;;;16.00;99.90;;;;;;4985286;28;20507;-39
2022/08/10 05:27:44;;;;;;;6.30;4.05;;;16.10;99.90;;;;;;4986040;28;20046;-39
2022/08/10 05:30:13;;;;;;;6.75;3.85;;;16.10;99.90;;;;;;4982031;28;20088;-38
2022/08/10 05:32:40;;;;;;;7.70;4.45;;;16.10;99.90;;;;;;4986445;28;20128;-33
2022/08/10 05:35:06;;;;;;;6.63;3.85;;;16.20;99.90;;;;;;4984082;28;20499;-37
2022/08/10 05:37:32;;;;;;;6.80;3.83;;;16.30;99.90;;;;;;4985698;28;20050;-36
2022/08/10 05:39:59;;;;;;;6.90;4.35;;;16.30;99.90;;;;;;4984190;28;20030;-37
2022/08/10 05:42:25;;;;;;;7.18;4.25;;;16.40;99.90;;;;;;4984791;28;20074;-37
2022/08/10 05:44:51;;;;;;;5.85;3.80;;;16.50;99.90;;;;;;4984792;28;20038;-37
2022/08/10 05:47:18;;;;;;;6.35;3.95;;;16.50;99.90;;;;;;4972646;28;20041;-37
2022/08/10 05:49:47;;;;;;;6.15;3.90;;;16.50;99.90;;;;;;4986570;28;20507;-37
2022/08/10 05:52:15;;;;;;;7.60;4.45;;;16.70;99.90;;;;;;4985712;28;20495;-37
2022/08/10 05:54:41;;;;;;;6.65;4.13;;;16.80;99.90;;;;;;4986149;28;20057;-38
2022/08/10 05:57:07;;;;;;;6.60;3.83;;;16.80;99.90;;;;;;4982721;28;20042;-37
2022/08/10 05:59:36;;;;;;;7.03;4.28;;;16.90;99.90;;;;;;4984942;28;21235;-37
2022/08/10 06:02:06;;;;;;;7.72;4.10;;;17.00;99.90;;;;;;4985440;28;20038;-37
2022/08/10 06:04:44;;;;;;;5.30;3.65;;;17.00;99.90;;;;;;4986459;28;20046;-37
2022/08/10 06:07:14;;;;;;;8.52;4.07;;;17.10;99.90;;;;;;4986023;28;20065;-37
2022/08/10 06:09:42;;;;;;;6.47;3.72;;;17.10;99.90;;;;;;4986831;28;20042;-37
2022/08/10 06:12:10;;;;;;;8.20;4.00;;;17.20;99.90;;;;;;4982419;28;20070;-37
2022/08/10 06:17:23;;;;;;;5.22;3.22;;;17.30;99.90;;;;;;4987029;28;20047;-37
2022/08/10 06:19:50;;;;;;;6.70;3.25;;;17.40;99.90;;;;;;4987587;28;20097;-36
2022/08/10 06:22:17;;;;;;;4.72;3.10;;;17.50;99.90;;;;;;4985154;28;20052;-36
2022/08/10 06:24:45;;;;;;;5.90;4.00;;;17.60;99.90;;;;;;4985190;28;20052;-36
2022/08/10 06:27:12;;;;;;;6.18;3.80;;;17.60;99.90;;;;;;4983068;28;20412;-39
2022/08/10 06:29:42;;;;;;;5.20;3.22;;;17.80;99.90;;;;;;4986014;28;20539;-36
2022/08/10 06:32:10;;;;;;;6.40;4.13;;;17.90;99.90;;;;;;4981900;28;20042;-41
2022/08/10 06:34:43;;;;;;;4.78;3.67;;;17.90;99.90;;;;;;4970085;28;20042;-37
2022/08/10 06:37:12;;;;;;;7.20;3.75;;;18.00;99.90;;;;;;4986317;28;20098;-37
2022/08/10 06:39:38;;;;;;;5.55;3.20;;;18.10;99.90;;;;;;4992483;28;20042;-39
2022/08/10 06:42:09;;;;;;;5.10;2.88;;;18.20;99.90;;;;;;4988955;28;20034;-35
2022/08/10 06:44:40;;;;;;;6.65;3.08;;;18.20;99.90;;;;;;4987574;28;20085;-37
2022/08/10 06:47:09;;;;;;;4.68;3.17;;;18.40;99.90;;;;;;4988208;28;20125;-37
2022/08/10 06:49:36;;;;;;;5.30;3.10;;;18.40;99.90;;;;;;4989637;28;20113;-36
2022/08/10 06:52:03;;;;;;;5.30;2.63;;;18.50;99.90;;;;;;4988019;28;20484;-34
2022/08/10 06:54:30;;;;;;;2.33;0.88;;;18.60;99.90;;;;;;4991178;28;20053;-32
2022/08/10 06:56:57;;;;;;;1.77;1.08;;;18.70;99.90;;;;;;4988772;28;20113;-34
2022/08/10 06:59:43;;;;;;;1.95;1.40;;;19.00;99.90;;;;;;4991513;28;20148;-34
2022/08/10 07:02:13;;;;;;;4.93;2.90;;;19.30;95.90;;;;;;4990731;28;20521;-35
2022/08/10 07:04:41;;;;;;;2.97;1.17;;;19.50;98.80;;;;;;4986307;28;20873;-33
2022/08/10 07:07:09;;;;;;;1.83;1.13;;;19.70;96.30;;;;;;4986356;28;20447;-34
2022/08/10 07:09:38;;;;;;;4.93;2.20;;;20.00;93.60;;;;;;4986175;28;20046;-33
2022/08/10 07:12:06;;;;;;;3.80;1.30;;;20.20;93.30;;;;;;4985189;28;20046;-34
2022/08/10 07:14:35;;;;;;;4.40;1.65;;;20.20;93.60;;;;;;4986597;28;20057;-35
2022/08/10 07:17:02;;;;;;;2.13;1.00;;;20.30;92.50;;;;;;4985843;28;20042;-34
2022/08/10 07:19:30;;;;;;;5.00;1.65;;;20.40;92.40;;;;;;4988268;28;20404;-33
2022/08/10 07:21:56;;;;;;;3.92;2.50;;;20.40;92.50;;;;;;4987798;28;20633;-34
2022/08/10 07:24:23;;;;;;;4.22;2.45;;;20.50;93.10;;;;;;4987318;28;20074;-33
2022/08/10 07:26:53;;;;;;;4.43;1.83;;;20.40;93.70;;;;;;4983749;28;20038;-36
2022/08/10 07:29:30;;;;;;;4.28;3.10;;;20.40;93.70;;;;;;4990043;28;20109;-33
2022/08/10 07:31:58;;;;;;;3.55;2.58;;;20.40;94.20;;;;;;4988158;28;20480;-34
2022/08/10 07:34:25;;;;;;;3.97;1.55;;;20.40;94.10;;;;;;4985452;28;20042;-33
2022/08/10 07:36:54;;;;;;;4.63;2.45;;;20.40;94.20;;;;;;4970309;28;20049;-33
2022/08/10 07:39:23;;;;;;;6.35;2.97;;;20.50;94.00;;;;;;4972068;28;20124;-33
2022/08/10 07:41:51;;;;;;;4.10;1.73;;;20.50;94.50;;;;;;4985564;28;20555;-33
2022/08/10 07:44:20;;;;;;;6.28;2.60;;;20.50;94.10;;;;;;4972746;28;20524;-33
2022/08/10 07:46:49;;;;;;;4.55;2.40;;;20.60;94.30;;;;;;4988366;28;20737;-34
2022/08/10 07:49:21;;;;;;;3.63;1.10;;;20.70;94.30;;;;;;4989284;28;20034;-33
2022/08/10 07:51:50;;;;;;;5.57;3.15;;;20.70;94.00;;;;;;4988757;28;20113;-34
2022/08/10 07:54:18;;;;;;;5.38;1.98;;;20.80;94.10;;;;;;4985771;28;20038;-34
2022/08/10 07:56:48;;;;;;;5.63;2.53;;;20.90;93.70;;;;;;4988036;28;20037;-35
2022/08/10 07:59:19;;;;;;;3.15;1.40;;;21.00;93.50;;;;;;4986798;28;20133;-33
2022/08/10 08:01:49;;;;;;;3.88;1.50;;;21.10;93.20;;;;;;4986515;28;20050;-34
2022/08/10 08:04:16;;;;;;;4.28;2.22;;;21.30;92.30;;;;;;4986830;28;20046;-33
2022/08/10 08:06:44;;;;;;;2.80;1.10;;;21.50;92.00;;;;;;4970096;28;20577;-34
2022/08/10 08:09:10;;;;;;;2.30;1.48;;;21.60;91.60;;;;;;4988896;28;20057;-36
2022/08/10 08:11:38;;;;;;;1.98;1.30;;;21.70;91.40;;;;;;4984378;28;20042;-35
2022/08/10 08:14:07;;;;;;;5.75;1.60;;;21.80;91.10;;;;;;4987280;28;20057;-34
2022/08/10 08:16:35;;;;;;;2.17;1.20;;;21.90;90.80;;;;;;4987423;28;20050;-34
2022/08/10 08:19:02;;;;;;;3.25;1.65;;;22.00;90.40;;;;;;4990714;28;20035;-33
2022/08/10 08:21:29;;;;;;;3.78;1.48;;;22.10;90.50;;;;;;4969224;28;20100;-34
2022/08/10 08:23:56;;;;;;;4.40;2.05;;;22.20;90.20;;;;;;4981025;28;20052;-33
2022/08/10 08:26:23;;;;;;;2.92;1.60;;;22.20;90.60;;;;;;4986752;28;20100;-33
2022/08/10 08:28:51;;;;;;;3.22;1.60;;;22.30;90.50;;;;;;4972778;28;20452;-35
2022/08/10 08:31:19;;;;;;;3.25;1.95;;;22.40;90.50;;;;;;4985298;28;20046;-35
2022/08/10 08:33:45;;;;;;;4.07;1.58;;;22.50;90.50;;;;;;4986175;28;20046;-36
2022/08/10 08:36:14;;;;;;;2.85;1.38;;;22.70;90.20;;;;;;4965284;28;20455;-36
2022/08/10 08:38:41;;;;;;;2.65;1.60;;;22.70;90.00;;;;;;4986546;28;20419;-35
2022/08/10 08:41:09;;;;;;;4.22;1.90;;;22.90;90.00;;;;;;4985816;28;20039;-36
2022/08/10 08:43:50;;;;;;;3.35;1.38;;;22.90;89.30;;;;;;4984142;28;20039;-35
2022/08/10 08:46:43;;;;;;;3.25;1.10;;;23.00;88.70;;;;;;4978786;28;20082;-35
2022/08/10 08:49:45;;;;;;;3.08;1.20;;;23.10;87.30;;;;;;4942023;28;20050;-33
2022/08/10 08:52:46;;;;;;;5.38;1.85;;;23.20;87.60;;;;;;4986319;28;20507;-34
2022/08/10 08:55:22;;;;;;;3.55;1.33;;;23.30;86.70;;;;;;4959201;28;20148;-33
2022/08/10 08:58:00;;;;;;;2.40;1.10;;;23.40;86.90;;;;;;4981625;28;20053;-35
2022/08/10 09:00:39;;;;;;;3.25;1.20;;;23.50;86.60;;;;;;4988128;28;20062;-35
2022/08/10 09:03:28;;;;;;;3.97;1.42;;;23.60;86.20;;;;;;4985393;28;20042;-33
2022/08/10 09:05:57;;;;;;;1.40;1.05;;;23.70;85.60;;;;;;4988979;28;20081;-33
2022/08/10 09:08:46;;;;;;;5.35;1.55;;;23.90;85.40;;;;;;4988870;28;20075;-33
2022/08/10 09:11:21;;;;;;;4.53;1.40;;;24.00;83.30;;;;;;4978973;28;20440;-33
2022/08/10 09:14:10;;;;;;;2.58;1.40;;;24.10;84.10;;;;;;4987189;28;20050;-35
2022/08/10 09:17:00;;;;;;;3.75;1.35;;;24.20;81.80;;;;;;4985869;28;20167;-34
2022/08/10 09:19:32;;;;;;;5.13;1.42;;;24.30;82.60;;;;;;4974316;28;20125;-34
2022/08/10 09:22:32;;;;;;;5.85;1.40;;;24.40;82.40;;;;;;4987854;28;20038;-35
2022/08/10 09:25:17;;;;;;;3.75;0.90;;;24.50;81.50;;;;;;4987101;28;20050;-34
2022/08/10 09:27:52;;;;;;;4.50;0.90;;;24.60;81.70;;;;;;4963652;28;20050;-34
2022/08/10 09:30:29;;;;;;;8.88;1.35;;;24.70;79.90;;;;;;4968314;28;20497;-43
2022/08/10 09:33:14;;;;;;;2.50;1.20;;;24.80;79.50;;;;;;4986346;28;20046;-45
2022/08/10 09:35:51;;;;;;;2.28;1.10;;;25.00;78.50;;;;;;4986798;28;20512;-37
2022/08/10 09:38:29;;;;;;;2.65;1.40;;;25.00;78.20;;;;;;4986189;28;20549;-38
2022/08/10 09:41:22;;;;;;;2.95;0.90;;;25.10;78.10;;;;;;4983378;28;20542;-38
2022/08/10 09:44:28;;;;;;;1.48;0.90;;;25.20;76.90;;;;;;4982716;28;20480;-41
2022/08/10 09:47:29;;;;;;;5.50;1.10;;;25.30;76.20;;;;;;4934929;28;20059;-43
2022/08/10 09:50:07;;;;;;;5.28;0.95;;;25.50;74.90;;;;;;4983549;28;20045;-36
2022/08/10 09:53:04;;;;;;;1.40;0.68;;;25.60;74.10;;;;;;4985346;28;20066;-36
2022/08/10 09:55:42;;;;;;;3.60;0.90;;;25.80;71.10;;;;;;4984430;28;20054;-36
2022/08/10 09:58:43;;;;;;;1.45;0.73;;;25.80;71.60;;;;;;4986646;28;20492;-38
2022/08/10 10:01:17;;;;;;;3.13;1.05;;;25.90;70.20;;;;;;4929598;28;20055;-37
2022/08/10 10:04:08;;;;;;;1.92;0.90;;;26.00;70.40;;;;;;4944243;29;20098;-44
2022/08/10 10:06:54;;;;;;;2.03;0.70;;;26.00;67.20;;;;;;4948301;29;20461;-38
2022/08/10 10:09:37;;;;;;;3.85;0.90;;;26.10;64.60;;;;;;4949092;28;20059;-37
2022/08/10 10:12:48;;;;;;;2.67;0.70;;;26.20;62.00;;;;;;4951920;29;20049;-40
2022/08/10 10:15:36;;;;;;;1.75;0.82;;;26.40;62.40;;;;;;4936632;28;20477;-41
2022/08/10 10:18:01;;;;;;;3.63;0.63;;;26.50;58.80;;;;;;4944000;29;20044;-39
2022/08/10 10:20:55;;;;;;;1.95;0.73;;;26.60;60.30;;;;;;4952309;29;20043;-41
2022/08/10 10:23:36;;;;;;;7.35;1.33;;;26.80;56.40;;;;;;4950795;28;20417;-44
2022/08/10 10:26:29;;;;;;;5.13;0.93;;;26.90;56.10;;;;;;4949928;28;20095;-39
2022/08/10 10:28:59;;;;;;;1.95;1.00;;;27.00;48.30;;;;;;4952172;28;20063;-41
2022/08/10 10:31:36;;;;;;;1.60;0.68;;;27.00;50.40;;;;;;4950510;28;20572;-44
2022/08/10 10:34:26;;;;;;;0.88;0.60;;;27.10;50.20;;;;;;4942535;29;20476;-43
2022/08/10 10:36:54;;;;;;;1.92;0.70;;;27.10;49.60;;;;;;4948774;28;20051;-45
2022/08/10 10:39:24;;;;;;;2.42;0.90;;;27.20;51.10;;;;;;4945362;28;20050;-41
2022/08/10 10:42:00;;;;;;;1.90;0.82;;;27.20;49.80;;;;;;4950008;28;20094;-43
2022/08/10 10:44:57;;;;;;;1.55;0.70;;;27.30;49.30;;;;;;4949401;28;20047;-41
2022/08/10 10:47:33;;;;;;;1.67;0.80;;;27.40;47.80;;;;;;4950873;28;20508;-43
2022/08/10 10:50:29;;;;;;;2.03;0.90;;;27.40;48.80;;;;;;4949950;28;20449;-45
2022/08/10 10:53:11;;;;;;;4.47;1.00;;;27.50;47.50;;;;;;4944302;28;20039;-46
2022/08/10 10:56:13;;;;;;;2.25;0.60;;;27.50;48.00;;;;;;4950166;28;20052;-36
2022/08/10 10:59:09;;;;;;;3.83;0.70;;;27.60;47.10;;;;;;4944930;28;20069;-36
2022/08/10 11:01:53;;;;;;;5.03;0.93;;;27.70;46.10;;;;;;4942423;28;20078;-36
2022/08/10 11:04:28;;;;;;;2.78;0.98;;;27.80;46.80;;;;;;4961856;28;20777;-41
2022/08/10 11:07:03;;;;;;;3.17;0.77;;;27.90;47.10;;;;;;4948198;28;20042;-39
2022/08/10 11:09:48;;;;;;;3.40;0.90;;;27.90;46.80;;;;;;4947375;28;20047;-44
2022/08/10 11:12:27;;;;;;;2.58;0.80;;;28.00;46.30;;;;;;4950006;28;20043;-47
2022/08/10 11:15:11;;;;;;;2.95;0.73;;;28.10;45.70;;;;;;4949262;28;20497;-41
2022/08/10 11:18:10;;;;;;;2.38;0.60;;;28.20;44.40;;;;;;4947953;28;20544;-40
2022/08/10 11:20:47;;;;;;;1.40;0.50;;;28.10;44.60;;;;;;4926647;28;20039;-40
2022/08/10 11:23:30;;;;;;;1.92;0.68;;;28.20;44.90;;;;;;4951859;28;20035;-43
2022/08/10 11:26:18;;;;;;;;;;;28.20;44.10;;;;;;4950796;28;20046;-43
2022/08/10 11:28:50;;;;;;;2.40;0.60;;;28.30;42.20;;;;;;4943303;29;20332;-44
2022/08/10 11:31:27;;;;;;;1.23;0.65;;;28.40;44.30;;;;;;4949347;28;20042;-46
2022/08/10 11:33:59;;;;;;;3.33;0.93;;;28.50;44.00;;;;;;4948123;28;20058;-40
2022/08/10 11:36:50;;;;;;;1.58;0.70;;;28.50;43.60;;;;;;4947776;28;20047;-43
2022/08/10 11:39:22;;;;;;;0.82;0.60;;;28.60;43.10;;;;;;4948069;28;20042;-43
2022/08/10 11:41:55;;;;;;;1.75;0.90;;;28.70;43.70;;;;;;4948269;28;20039;-43
2022/08/10 11:44:39;;;;;;;2.40;0.73;;;28.80;43.20;;;;;;4952634;28;20043;-46
2022/08/10 11:47:18;;;;;;;2.72;0.60;;;28.80;42.60;;;;;;4946630;28;20035;-45
2022/08/10 11:50:23;;;;;;;2.17;0.70;;;28.80;42.30;;;;;;4945778;28;20086;-40
2022/08/10 11:53:34;;;;;;;1.23;0.77;;;28.90;41.90;;;;;;4948880;28;20481;-42
2022/08/10 11:56:01;;;;;;;3.47;0.80;;;29.00;41.70;;;;;;4908476;29;20081;-43
2022/08/10 12:01:20;;;;;;;3.72;1.02;;;29.10;41.20;;;;;;4967113;28;20055;-44
2022/08/10 12:03:47;;;;;;;1.98;0.82;;;29.20;41.30;;;;;;4967934;28;20563;-44
2022/08/10 12:06:18;;;;;;;2.15;0.65;;;29.30;41.30;;;;;;4966630;28;20504;-43
2022/08/10 12:08:46;;;;;;;1.27;0.70;;;29.40;40.80;;;;;;4966920;28;20121;-43
2022/08/10 12:11:16;;;;;;;1.67;0.70;;;29.40;40.10;;;;;;4964205;28;20567;-39
2022/08/10 12:14:05;;;;;;;2.20;0.70;;;29.40;40.40;;;;;;4967089;28;20043;-42
2022/08/10 12:16:37;;;;;;;1.83;0.73;;;29.50;40.30;;;;;;4965555;28;20092;-43
2022/08/10 12:19:12;;;;;;;3.63;0.60;;;29.60;40.20;;;;;;4970296;28;20049;-44
2022/08/10 12:21:47;;;;;;;1.60;0.50;;;29.70;40.00;;;;;;4962580;28;20571;-38
2022/08/10 12:24:35;;;;;;;1.63;0.65;;;29.80;39.20;;;;;;4961465;28;20114;-44
2022/08/10 12:27:15;;;;;;;1.08;0.60;;;29.90;39.20;;;;;;4963269;28;20053;-44
2022/08/10 12:29:51;;;;;;;0.90;0.50;;;30.00;39.10;;;;;;4960898;28;20055;-43
2022/08/10 12:32:29;;;;;;;4.22;0.77;;;30.20;38.80;;;;;;4964499;28;20062;-44
2022/08/10 12:35:11;;;;;;;1.73;0.70;;;30.40;38.60;;;;;;4967682;28;20046;-40
2022/08/10 12:37:59;;;;;;;1.42;0.60;;;30.50;38.90;;;;;;4960601;28;20504;-44
2022/08/10 12:40:32;;;;;;;1.67;0.60;;;30.60;37.20;;;;;;4963708;28;20045;-39
2022/08/10 12:43:20;;;;;;;1.55;0.70;;;30.80;38.00;;;;;;4964079;28;20039;-44
2022/08/10 12:46:13;;;;;;;3.47;0.60;;;30.70;36.90;;;;;;4963357;28;20045;-40
2022/08/10 12:48:54;;;;;;;1.63;0.70;;;30.80;36.60;;;;;;4959232;28;20132;-40
2022/08/10 12:51:29;;;;;;;1.33;0.50;;;30.90;36.60;;;;;;4964263;28;20073;-43
2022/08/10 12:54:12;;;;;;;1.05;0.63;;;31.00;36.30;;;;;;4962740;28;20050;-42
2022/08/10 12:56:58;;;;;;;2.10;0.70;;;31.10;35.80;;;;;;4962949;28;20467;-41
2022/08/10 12:59:26;;;;;;;1.05;0.70;;;31.30;35.60;;;;;;4966118;28;20514;-44
2022/08/10 13:01:54;;;;;;;2.45;0.80;;;31.40;36.80;;;;;;4984975;28;20516;-41
2022/08/10 13:04:34;;;;;;;1.23;0.55;;;31.50;35.80;;;;;;4981536;28;20034;-43
2022/08/10 13:07:01;;;;;;;1.33;0.60;;;31.50;34.60;;;;;;4981742;28;20925;-38
2022/08/10 13:09:28;;;;;;;2.00;0.60;;;31.70;34.40;;;;;;4984604;28;20030;-43
2022/08/10 13:12:00;;;;;;;2.35;0.70;;;31.80;33.90;;;;;;4968713;28;20038;-39
2022/08/10 13:14:46;;;;;;;0.60;0.52;;;31.80;33.30;;;;;;4972112;28;20042;-36
2022/08/10 13:17:23;;;;;;;2.78;0.60;;;31.90;34.00;;;;;;4984301;28;20523;-40
2022/08/10 13:19:51;;;;;;;2.03;0.80;;;31.90;34.10;;;;;;4981902;28;20045;-42
2022/08/10 13:22:19;;;;;;;0.95;0.70;;;32.10;34.30;;;;;;4980106;28;20432;-41
2022/08/10 13:24:50;;;;;;;3.45;0.60;;;32.20;34.40;;;;;;4983498;28;20034;-41
2022/08/10 13:27:16;;;;;;;2.65;0.73;;;32.40;34.10;;;;;;4982247;28;20113;-46